Portada
METAR-TAF:

METAR-TAF

Aeroports :

Hefei, Xina

latitud: 31-52N, longitud: 117-14E, altitud: 36 m

Observació

L'informe es va fer fa 56 minuts, a les 09:00 UTC
Vent 8 kt del Nord-Est
Temperatura 17°C
Humitat 42%
Pressió 1021 hPa
Visibilitat 10 km o més
sense núvols per sota de 1500 mi sense presència de cumulonimbus.

METAR: ZSOF 020900Z 04004MPS CAVOK 17/04 Q1021 NOSIG

Hora: 17:56 (09:56 UTC)

Pronòstic

L'informe es va fer fa 6 hores i 55 minuts, a les 03:01 UTC
Pronòstic vàlid del 02 a les 06 UTC al 03 a les 06 UTC
Vent 6 kt del Est
Visibilitat: 5000 m
calitja

TAF: ZSOF 020301Z 0206/0306 09003MPS 5000 HZ NSC TX18/0306Z TN07/0222Z

Observacions i pronòstics meteorològics de més de 4000 aeroports (METAR i TAF).

Les estacions disponibles són els punts grocs i vermells al mapa.

Posi el ratolí al punt desitjat per veure el nom de l'estació.

Feu clic per veure les observacions i els pronòstics meteorològics.

Per canviar el mapa: feu clic els botons verds amb una creu de color negre per apropar; al botó verd amb un guió per allunyar la imatge; o en les fletxes verdes per a mapes adjacents.


METAR-TAF: